sensor_id;sensor_type;location;lat;lon;timestamp;pressure;altitude;pressure_sealevel;temperature;humidity
56568;BME280;42456;49.956;20.004;2022-11-20T00:01:29;98059.69;;;-5.70;81.23
56568;BME280;42456;49.956;20.004;2022-11-20T00:03:56;98063.62;;;-5.70;81.30
56568;BME280;42456;49.956;20.004;2022-11-20T00:06:24;98068.55;;;-5.71;81.30
56568;BME280;42456;49.956;20.004;2022-11-20T00:08:56;98064.13;;;-5.71;81.42
56568;BME280;42456;49.956;20.004;2022-11-20T00:11:25;98055.99;;;-5.72;81.41
56568;BME280;42456;49.956;20.004;2022-11-20T00:13:54;98060.15;;;-5.73;81.35
56568;BME280;42456;49.956;20.004;2022-11-20T00:16:24;98053.53;;;-5.76;81.33
56568;BME280;42456;49.956;20.004;2022-11-20T00:18:52;98057.19;;;-5.77;81.32
56568;BME280;42456;49.956;20.004;2022-11-20T00:21:23;98060.27;;;-5.80;81.27
56568;BME280;42456;49.956;20.004;2022-11-20T00:23:53;98056.59;;;-5.81;81.28
56568;BME280;42456;49.956;20.004;2022-11-20T00:26:22;98056.02;;;-5.83;81.39
56568;BME280;42456;49.956;20.004;2022-11-20T00:28:51;98059.63;;;-5.87;81.54
56568;BME280;42456;49.956;20.004;2022-11-20T00:31:22;98057.52;;;-5.87;81.62
56568;BME280;42456;49.956;20.004;2022-11-20T00:33:49;98061.94;;;-5.88;81.69
56568;BME280;42456;49.956;20.004;2022-11-20T00:36:17;98055.13;;;-5.89;81.65
56568;BME280;42456;49.956;20.004;2022-11-20T00:38:46;98051.42;;;-5.91;81.68
56568;BME280;42456;49.956;20.004;2022-11-20T00:41:14;98055.86;;;-5.91;81.75
56568;BME280;42456;49.956;20.004;2022-11-20T00:43:41;98054.00;;;-5.93;81.83
56568;BME280;42456;49.956;20.004;2022-11-20T00:46:10;98047.15;;;-5.94;81.85
56568;BME280;42456;49.956;20.004;2022-11-20T00:48:44;98049.22;;;-5.96;81.94
56568;BME280;42456;49.956;20.004;2022-11-20T00:51:14;98044.48;;;-5.97;81.98
56568;BME280;42456;49.956;20.004;2022-11-20T00:53:46;98054.16;;;-5.97;81.88
56568;BME280;42456;49.956;20.004;2022-11-20T00:56:14;98056.50;;;-5.98;81.81
56568;BME280;42456;49.956;20.004;2022-11-20T00:58:44;98048.64;;;-5.98;81.88
56568;BME280;42456;49.956;20.004;2022-11-20T01:01:18;98042.09;;;-5.98;81.99
56568;BME280;42456;49.956;20.004;2022-11-20T01:03:45;98040.28;;;-5.98;82.14
56568;BME280;42456;49.956;20.004;2022-11-20T01:06:13;98041.87;;;-5.97;82.15
56568;BME280;42456;49.956;20.004;2022-11-20T01:08:56;98038.22;;;-5.96;82.11
56568;BME280;42456;49.956;20.004;2022-11-20T01:11:31;98044.48;;;-5.97;82.07
56568;BME280;42456;49.956;20.004;2022-11-20T01:13:57;98040.28;;;-5.98;82.10
56568;BME280;42456;49.956;20.004;2022-11-20T01:16:26;98031.00;;;-6.03;82.19
56568;BME280;42456;49.956;20.004;2022-11-20T01:18:57;98041.14;;;-5.95;82.22
56568;BME280;42456;49.956;20.004;2022-11-20T01:21:34;98039.52;;;-5.96;82.20
56568;BME280;42456;49.956;20.004;2022-11-20T01:23:59;98027.23;;;-5.95;82.19
56568;BME280;42456;49.956;20.004;2022-11-20T01:26:28;98028.59;;;-5.93;82.16
56568;BME280;42456;49.956;20.004;2022-11-20T01:28:57;98022.58;;;-5.93;82.18
56568;BME280;42456;49.956;20.004;2022-11-20T01:31:31;98028.59;;;-5.93;82.19
56568;BME280;42456;49.956;20.004;2022-11-20T01:34:09;98023.89;;;-5.93;82.13
56568;BME280;42456;49.956;20.004;2022-11-20T01:36:38;98024.39;;;-5.94;82.07
56568;BME280;42456;49.956;20.004;2022-11-20T01:39:19;98011.03;;;-5.95;82.12
56568;BME280;42456;49.956;20.004;2022-11-20T01:41:47;98016.77;;;-5.95;82.10
56568;BME280;42456;49.956;20.004;2022-11-20T01:47:14;98007.61;;;-5.95;82.24
56568;BME280;42456;49.956;20.004;2022-11-20T01:49:54;98003.17;;;-5.95;82.23
56568;BME280;42456;49.956;20.004;2022-11-20T01:52:53;98005.72;;;-5.97;82.24
56568;BME280;42456;49.956;20.004;2022-11-20T01:54:58;98010.45;;;-5.97;82.29
56568;BME280;42456;49.956;20.004;2022-11-20T01:57:34;98014.11;;;-5.98;82.31
56568;BME280;42456;49.956;20.004;2022-11-20T02:00:07;98016.42;;;-5.99;82.29
56568;BME280;42456;49.956;20.004;2022-11-20T02:02:36;97998.05;;;-6.01;82.28
56568;BME280;42456;49.956;20.004;2022-11-20T02:05:18;98004.83;;;-6.03;82.29
56568;BME280;42456;49.956;20.004;2022-11-20T02:07:41;98004.78;;;-6.05;82.36
56568;BME280;42456;49.956;20.004;2022-11-20T02:10:07;98012.06;;;-6.07;82.34
56568;BME280;42456;49.956;20.004;2022-11-20T02:12:34;98009.09;;;-6.11;82.26
56568;BME280;42456;49.956;20.004;2022-11-20T02:15:14;98010.86;;;-6.14;82.19
56568;BME280;42456;49.956;20.004;2022-11-20T02:17:40;98013.94;;;-6.17;82.13
56568;BME280;42456;49.956;20.004;2022-11-20T02:20:07;98021.23;;;-6.19;82.11
56568;BME280;42456;49.956;20.004;2022-11-20T02:22:38;98023.28;;;-6.21;82.10
56568;BME280;42456;49.956;20.004;2022-11-20T02:25:07;98024.54;;;-6.23;82.10
56568;BME280;42456;49.956;20.004;2022-11-20T02:27:34;98019.77;;;-6.26;82.08
56568;BME280;42456;49.956;20.004;2022-11-20T02:30:04;98023.38;;;-6.27;82.02
56568;BME280;42456;49.956;20.004;2022-11-20T02:32:36;98017.83;;;-6.31;81.92
56568;BME280;42456;49.956;20.004;2022-11-20T02:37:48;98018.20;;;-6.36;81.91
56568;BME280;42456;49.956;20.004;2022-11-20T02:40:16;98017.66;;;-6.38;81.94
56568;BME280;42456;49.956;20.004;2022-11-20T02:42:43;98013.95;;;-6.40;82.02
56568;BME280;42456;49.956;20.004;2022-11-20T02:45:09;98020.19;;;-6.41;82.09
56568;BME280;42456;49.956;20.004;2022-11-20T02:47:36;98023.11;;;-6.40;82.09
56568;BME280;42456;49.956;20.004;2022-11-20T02:50:03;98029.12;;;-6.39;82.13
56568;BME280;42456;49.956;20.004;2022-11-20T02:52:30;98025.20;;;-6.39;82.12
56568;BME280;42456;49.956;20.004;2022-11-20T02:54:57;98029.34;;;-6.41;82.12
56568;BME280;42456;49.956;20.004;2022-11-20T02:57:23;98018.66;;;-6.39;82.13
56568;BME280;42456;49.956;20.004;2022-11-20T02:59:49;98014.23;;;-6.39;82.19
56568;BME280;42456;49.956;20.004;2022-11-20T03:02:15;98019.01;;;-6.36;82.31
56568;BME280;42456;49.956;20.004;2022-11-20T03:04:42;98015.36;;;-6.35;82.40
56568;BME280;42456;49.956;20.004;2022-11-20T03:07:09;98008.31;;;-6.34;82.24
56568;BME280;42456;49.956;20.004;2022-11-20T03:09:35;98016.39;;;-6.36;82.19
56568;BME280;42456;49.956;20.004;2022-11-20T03:12:01;98016.12;;;-6.37;82.13
56568;BME280;42456;49.956;20.004;2022-11-20T03:14:28;98011.61;;;-6.39;82.14
56568;BME280;42456;49.956;20.004;2022-11-20T03:16:55;98011.61;;;-6.39;82.10
56568;BME280;42456;49.956;20.004;2022-11-20T03:19:21;98013.88;;;-6.42;82.09
56568;BME280;42456;49.956;20.004;2022-11-20T03:21:48;98010.19;;;-6.44;82.05
56568;BME280;42456;49.956;20.004;2022-11-20T03:24:14;98012.75;;;-6.46;82.05
56568;BME280;42456;49.956;20.004;2022-11-20T03:26:41;98014.51;;;-6.49;82.04
56568;BME280;42456;49.956;20.004;2022-11-20T03:29:08;98010.53;;;-6.52;81.97
56568;BME280;42456;49.956;20.004;2022-11-20T03:31:36;98018.84;;;-6.55;81.88
56568;BME280;42456;49.956;20.004;2022-11-20T03:34:06;98009.33;;;-6.58;81.87
56568;BME280;42456;49.956;20.004;2022-11-20T03:36:34;98006.66;;;-6.61;81.86
56568;BME280;42456;49.956;20.004;2022-11-20T03:39:02;98009.20;;;-6.63;81.83
56568;BME280;42456;49.956;20.004;2022-11-20T03:41:30;98006.03;;;-6.65;81.87
56568;BME280;42456;49.956;20.004;2022-11-20T03:43:59;98003.64;;;-6.67;81.87
56568;BME280;42456;49.956;20.004;2022-11-20T03:46:26;98000.72;;;-6.68;81.88
56568;BME280;42456;49.956;20.004;2022-11-20T03:48:54;98002.56;;;-6.68;81.88
56568;BME280;42456;49.956;20.004;2022-11-20T03:51:23;98004.09;;;-6.70;81.99
56568;BME280;42456;49.956;20.004;2022-11-20T03:53:51;98001.76;;;-6.69;82.08
56568;BME280;42456;49.956;20.004;2022-11-20T03:56:22;97996.80;;;-6.68;82.14
56568;BME280;42456;49.956;20.004;2022-11-20T03:58:49;98000.45;;;-6.69;82.16
56568;BME280;42456;49.956;20.004;2022-11-20T04:01:24;97997.56;;;-6.70;82.19
56568;BME280;42456;49.956;20.004;2022-11-20T04:03:50;97993.64;;;-6.70;82.21
56568;BME280;42456;49.956;20.004;2022-11-20T04:06:20;97991.52;;;-6.70;82.21
56568;BME280;42456;49.956;20.004;2022-11-20T04:08:48;97986.80;;;-6.71;82.16
56568;BME280;42456;49.956;20.004;2022-11-20T04:11:21;97990.72;;;-6.71;82.15
56568;BME280;42456;49.956;20.004;2022-11-20T04:13:54;97993.86;;;-6.71;82.19
56568;BME280;42456;49.956;20.004;2022-11-20T04:16:24;97992.25;;;-6.72;82.23
56568;BME280;42456;49.956;20.004;2022-11-20T04:18:55;97987.55;;;-6.73;82.28
56568;BME280;42456;49.956;20.004;2022-11-20T04:21:23;97986.24;;;-6.73;82.26
56568;BME280;42456;49.956;20.004;2022-11-20T04:23:51;97987.47;;;-6.75;82.22
56568;BME280;42456;49.956;20.004;2022-11-20T04:26:18;97991.39;;;-6.75;82.21
56568;BME280;42456;49.956;20.004;2022-11-20T04:28:46;97989.53;;;-6.77;82.22
56568;BME280;42456;49.956;20.004;2022-11-20T04:31:15;97983.22;;;-6.79;82.19
56568;BME280;42456;49.956;20.004;2022-11-20T04:33:43;97984.80;;;-6.78;82.16
56568;BME280;42456;49.956;20.004;2022-11-20T04:36:12;97976.11;;;-6.81;82.08
56568;BME280;42456;49.956;20.004;2022-11-20T04:38:39;97981.56;;;-6.82;82.05
56568;BME280;42456;49.956;20.004;2022-11-20T04:41:11;97985.48;;;-6.82;82.09
56568;BME280;42456;49.956;20.004;2022-11-20T04:43:37;97988.05;;;-6.85;82.00
56568;BME280;42456;49.956;20.004;2022-11-20T04:46:04;97989.85;;;-6.85;81.98
56568;BME280;42456;49.956;20.004;2022-11-20T04:48:30;97987.46;;;-6.87;81.92
56568;BME280;42456;49.956;20.004;2022-11-20T04:50:57;97986.61;;;-6.90;81.74
56568;BME280;42456;49.956;20.004;2022-11-20T04:53:23;97986.55;;;-6.92;81.69
56568;BME280;42456;49.956;20.004;2022-11-20T04:55:50;97983.08;;;-6.95;81.70
56568;BME280;42456;49.956;20.004;2022-11-20T04:58:16;97981.47;;;-6.96;81.76
56568;BME280;42456;49.956;20.004;2022-11-20T05:00:43;97979.38;;;-6.97;81.78
56568;BME280;42456;49.956;20.004;2022-11-20T05:03:09;97971.77;;;-6.98;81.76
56568;BME280;42456;49.956;20.004;2022-11-20T05:05:35;97978.53;;;-7.00;81.78
56568;BME280;42456;49.956;20.004;2022-11-20T05:08:01;97974.83;;;-7.01;81.75
56568;BME280;42456;49.956;20.004;2022-11-20T05:10:28;97973.00;;;-7.01;81.76
56568;BME280;42456;49.956;20.004;2022-11-20T05:12:54;97978.97;;;-7.03;81.71
56568;BME280;42456;49.956;20.004;2022-11-20T05:15:20;97974.75;;;-7.04;81.73
56568;BME280;42456;49.956;20.004;2022-11-20T05:17:52;97974.75;;;-7.04;81.72
56568;BME280;42456;49.956;20.004;2022-11-20T05:20:17;97974.97;;;-7.05;81.71
56568;BME280;42456;49.956;20.004;2022-11-20T05:22:44;97981.81;;;-7.04;81.72
56568;BME280;42456;49.956;20.004;2022-11-20T05:25:11;97975.50;;;-7.06;81.69
56568;BME280;42456;49.956;20.004;2022-11-20T05:27:37;97972.89;;;-7.06;81.68
56568;BME280;42456;49.956;20.004;2022-11-20T05:30:05;97969.69;;;-7.08;81.67
56568;BME280;42456;49.956;20.004;2022-11-20T05:32:33;97970.19;;;-7.08;81.71
56568;BME280;42456;49.956;20.004;2022-11-20T05:34:59;97965.50;;;-7.09;81.76
56568;BME280;42456;49.956;20.004;2022-11-20T05:37:26;97957.13;;;-7.08;81.91
56568;BME280;42456;49.956;20.004;2022-11-20T05:39:52;97946.98;;;-7.07;81.92
56568;BME280;42456;49.956;20.004;2022-11-20T05:42:18;97947.53;;;-7.05;81.90
56568;BME280;42456;49.956;20.004;2022-11-20T05:45:03;97941.58;;;-7.03;81.99
56568;BME280;42456;49.956;20.004;2022-11-20T05:47:33;97941.36;;;-7.02;81.97
56568;BME280;42456;49.956;20.004;2022-11-20T05:50:00;97939.55;;;-7.01;81.93
56568;BME280;42456;49.956;20.004;2022-11-20T05:52:29;97944.78;;;-7.01;81.84
56568;BME280;42456;49.956;20.004;2022-11-20T05:54:56;97947.39;;;-7.01;81.77
56568;BME280;42456;49.956;20.004;2022-11-20T05:57:22;97949.20;;;-7.02;81.79
56568;BME280;42456;49.956;20.004;2022-11-20T05:59:49;97946.31;;;-7.03;81.77
56568;BME280;42456;49.956;20.004;2022-11-20T06:02:15;97954.42;;;-7.02;81.71
56568;BME280;42456;49.956;20.004;2022-11-20T06:04:41;97952.53;;;-7.04;81.64
56568;BME280;42456;49.956;20.004;2022-11-20T06:07:07;97942.89;;;-7.03;81.66
56568;BME280;42456;49.956;20.004;2022-11-20T06:09:34;97946.00;;;-7.04;81.60
56568;BME280;42456;49.956;20.004;2022-11-20T06:12:00;97949.38;;;-7.06;81.61
56568;BME280;42456;49.956;20.004;2022-11-20T06:14:26;97948.06;;;-7.06;81.58
56568;BME280;42456;49.956;20.004;2022-11-20T06:16:52;97951.17;;;-7.06;81.57
56568;BME280;42456;49.956;20.004;2022-11-20T06:19:18;97944.64;;;-7.06;81.57
56568;BME280;42456;49.956;20.004;2022-11-20T06:21:45;97940.95;;;-7.08;81.60
56568;BME280;42456;49.956;20.004;2022-11-20T06:24:13;97941.76;;;-7.07;81.56
56568;BME280;42456;49.956;20.004;2022-11-20T06:26:39;97940.45;;;-7.07;81.59
56568;BME280;42456;49.956;20.004;2022-11-20T06:29:06;97938.56;;;-7.09;81.53
56568;BME280;42456;49.956;20.004;2022-11-20T06:31:32;97942.26;;;-7.08;81.54
56568;BME280;42456;49.956;20.004;2022-11-20T06:34:01;97936.53;;;-7.07;81.53
56568;BME280;42456;49.956;20.004;2022-11-20T06:36:27;97936.53;;;-7.07;81.57
56568;BME280;42456;49.956;20.004;2022-11-20T06:38:53;97932.88;;;-7.06;81.58
56568;BME280;42456;49.956;20.004;2022-11-20T06:41:21;97927.94;;;-7.05;81.66
56568;BME280;42456;49.956;20.004;2022-11-20T06:43:48;97917.26;;;-7.04;81.72
56568;BME280;42456;49.956;20.004;2022-11-20T06:46:16;97922.56;;;-7.01;81.80
56568;BME280;42456;49.956;20.004;2022-11-20T06:48:45;97923.92;;;-6.99;81.90
56568;BME280;42456;49.956;20.004;2022-11-20T06:51:11;97922.89;;;-6.98;81.90
56568;BME280;42456;49.956;20.004;2022-11-20T06:53:38;97933.92;;;-6.96;81.95
56568;BME280;42456;49.956;20.004;2022-11-20T06:56:05;97924.33;;;-6.93;81.99
56568;BME280;42456;49.956;20.004;2022-11-20T06:58:32;97925.68;;;-6.90;82.04
56568;BME280;42456;49.956;20.004;2022-11-20T07:01:05;97928.65;;;-6.87;82.02
56568;BME280;42456;49.956;20.004;2022-11-20T07:03:29;97928.70;;;-6.84;82.01
56568;BME280;42456;49.956;20.004;2022-11-20T07:05:56;97929.78;;;-6.83;82.01
56568;BME280;42456;49.956;20.004;2022-11-20T07:08:24;97930.08;;;-6.82;82.00
56568;BME280;42456;49.956;20.004;2022-11-20T07:10:50;97927.74;;;-6.81;81.96
56568;BME280;42456;49.956;20.004;2022-11-20T07:13:17;97932.16;;;-6.81;81.94
56568;BME280;42456;49.956;20.004;2022-11-20T07:15:43;97941.09;;;-6.80;81.97
56568;BME280;42456;49.956;20.004;2022-11-20T07:18:09;97935.86;;;-6.80;82.02
56568;BME280;42456;49.956;20.004;2022-11-20T07:20:35;97927.56;;;-6.77;82.02
56568;BME280;42456;49.956;20.004;2022-11-20T07:23:02;97921.61;;;-6.75;82.06
56568;BME280;42456;49.956;20.004;2022-11-20T07:25:28;97926.66;;;-6.71;82.15
56568;BME280;42456;49.956;20.004;2022-11-20T07:27:59;97923.66;;;-6.65;82.23
56568;BME280;42456;49.956;20.004;2022-11-20T07:30:30;97935.60;;;-6.58;82.37
56568;BME280;42456;49.956;20.004;2022-11-20T07:32:57;97933.93;;;-6.50;82.52
56568;BME280;42456;49.956;20.004;2022-11-20T07:35:24;97932.52;;;-6.43;82.45
56568;BME280;42456;49.956;20.004;2022-11-20T07:37:51;97939.72;;;-6.36;82.47
56568;BME280;42456;49.956;20.004;2022-11-20T07:40:18;97946.72;;;-6.28;82.55
56568;BME280;42456;49.956;20.004;2022-11-20T07:42:51;97947.73;;;-6.17;82.59
56568;BME280;42456;49.956;20.004;2022-11-20T07:45:20;97945.89;;;-6.05;82.76
56568;BME280;42456;49.956;20.004;2022-11-20T07:47:47;97945.89;;;-5.91;82.91
56568;BME280;42456;49.956;20.004;2022-11-20T07:50:14;97946.13;;;-5.78;83.00
56568;BME280;42456;49.956;20.004;2022-11-20T07:52:41;97949.23;;;-5.67;82.97
56568;BME280;42456;49.956;20.004;2022-11-20T07:55:08;97953.91;;;-5.55;82.83
56568;BME280;42456;49.956;20.004;2022-11-20T07:57:35;97957.45;;;-5.47;82.85
56568;BME280;42456;49.956;20.004;2022-11-20T08:00:02;97955.53;;;-5.38;82.72
56568;BME280;42456;49.956;20.004;2022-11-20T08:02:29;97952.81;;;-5.29;82.89
56568;BME280;42456;49.956;20.004;2022-11-20T08:04:55;97951.88;;;-5.23;82.88
56568;BME280;42456;49.956;20.004;2022-11-20T08:07:22;97953.58;;;-5.14;83.02
56568;BME280;42456;49.956;20.004;2022-11-20T08:09:48;97945.34;;;-5.06;83.16
56568;BME280;42456;49.956;20.004;2022-11-20T08:12:19;97946.06;;;-4.94;83.27
56568;BME280;42456;49.956;20.004;2022-11-20T08:15:00;97945.14;;;-4.86;83.40
56568;BME280;42456;49.956;20.004;2022-11-20T08:17:28;97944.05;;;-4.73;83.53
56568;BME280;42456;49.956;20.004;2022-11-20T08:19:54;97941.80;;;-4.65;83.55
56568;BME280;42456;49.956;20.004;2022-11-20T08:22:20;97945.11;;;-4.55;83.58
56568;BME280;42456;49.956;20.004;2022-11-20T08:24:46;97940.50;;;-4.46;83.65
56568;BME280;42456;49.956;20.004;2022-11-20T08:27:13;97938.81;;;-4.35;83.65
56568;BME280;42456;49.956;20.004;2022-11-20T08:29:40;97935.03;;;-4.25;83.72
56568;BME280;42456;49.956;20.004;2022-11-20T08:32:06;97932.02;;;-4.15;83.76
56568;BME280;42456;49.956;20.004;2022-11-20T08:34:32;97937.66;;;-4.04;83.80
56568;BME280;42456;49.956;20.004;2022-11-20T08:36:59;97933.33;;;-3.93;83.80
56568;BME280;42456;49.956;20.004;2022-11-20T08:39:27;97931.91;;;-3.81;83.84
56568;BME280;42456;49.956;20.004;2022-11-20T08:41:53;97932.02;;;-3.71;83.82
56568;BME280;42456;49.956;20.004;2022-11-20T08:44:20;97925.80;;;-3.63;83.80
56568;BME280;42456;49.956;20.004;2022-11-20T08:46:46;97927.75;;;-3.53;83.65
56568;BME280;42456;49.956;20.004;2022-11-20T08:49:13;97925.20;;;-3.46;83.45
56568;BME280;42456;49.956;20.004;2022-11-20T08:51:41;97930.55;;;-3.36;83.44
56568;BME280;42456;49.956;20.004;2022-11-20T08:54:07;97920.91;;;-3.28;83.52
56568;BME280;42456;49.956;20.004;2022-11-20T08:56:34;97923.12;;;-3.17;83.62
56568;BME280;42456;49.956;20.004;2022-11-20T08:59:00;97929.00;;;-3.08;83.68
56568;BME280;42456;49.956;20.004;2022-11-20T09:01:28;97933.27;;;-2.99;83.64
56568;BME280;42456;49.956;20.004;2022-11-20T09:03:57;97929.38;;;-2.94;83.61
56568;BME280;42456;49.956;20.004;2022-11-20T09:06:25;97929.44;;;-2.87;83.72
56568;BME280;42456;49.956;20.004;2022-11-20T09:08:52;97917.37;;;-2.80;83.60
56568;BME280;42456;49.956;20.004;2022-11-20T09:11:19;97916.61;;;-2.76;83.64
56568;BME280;42456;49.956;20.004;2022-11-20T09:13:45;97917.72;;;-2.72;83.69
56568;BME280;42456;49.956;20.004;2022-11-20T09:16:11;97920.91;;;-2.67;83.77
56568;BME280;42456;49.956;20.004;2022-11-20T09:18:38;97914.34;;;-2.62;83.73
56568;BME280;42456;49.956;20.004;2022-11-20T09:21:06;97914.39;;;-2.55;83.82
56568;BME280;42456;49.956;20.004;2022-11-20T09:23:37;97913.89;;;-2.49;83.71
56568;BME280;42456;49.956;20.004;2022-11-20T09:26:11;97907.90;;;-2.42;83.74
56568;BME280;42456;49.956;20.004;2022-11-20T09:28:39;97912.92;;;-2.36;83.64
56568;BME280;42456;49.956;20.004;2022-11-20T09:31:06;97906.93;;;-2.29;83.68
56568;BME280;42456;49.956;20.004;2022-11-20T09:33:33;97906.16;;;-2.24;83.64
56568;BME280;42456;49.956;20.004;2022-11-20T09:36:00;97898.81;;;-2.20;83.63
56568;BME280;42456;49.956;20.004;2022-11-20T09:38:27;97907.00;;;-2.14;83.61
56568;BME280;42456;49.956;20.004;2022-11-20T09:41:03;97906.50;;;-2.08;83.61
56568;BME280;42456;49.956;20.004;2022-11-20T09:43:48;97908.88;;;-2.07;83.56
56568;BME280;42456;49.956;20.004;2022-11-20T09:46:29;97901.52;;;-2.02;83.69
56568;BME280;42456;49.956;20.004;2022-11-20T09:52:22;97908.94;;;-1.92;83.93
56568;BME280;42456;49.956;20.004;2022-11-20T09:55:01;97919.26;;;-1.85;83.98
56568;BME280;42456;49.956;20.004;2022-11-20T09:57:36;97919.80;;;-1.80;83.98
56568;BME280;42456;49.956;20.004;2022-11-20T10:00:11;97917.42;;;-1.79;83.89
56568;BME280;42456;49.956;20.004;2022-11-20T10:05:23;97915.08;;;-1.73;84.12
56568;BME280;42456;49.956;20.004;2022-11-20T10:08:17;97915.36;;;-1.67;84.11
56568;BME280;42456;49.956;20.004;2022-11-20T10:19:47;97924.12;;;-1.52;83.51
56568;BME280;42456;49.956;20.004;2022-11-20T10:22:35;97921.22;;;-1.50;83.49
56568;BME280;42456;49.956;20.004;2022-11-20T10:25:13;97923.86;;;-1.50;83.47
56568;BME280;42456;49.956;20.004;2022-11-20T10:28:07;97922.28;;;-1.49;83.28
56568;BME280;42456;49.956;20.004;2022-11-20T10:30:41;97915.69;;;-1.49;83.38
56568;BME280;42456;49.956;20.004;2022-11-20T10:33:18;97913.84;;;-1.46;83.34
56568;BME280;42456;49.956;20.004;2022-11-20T10:36:05;97911.72;;;-1.44;83.23
56568;BME280;42456;49.956;20.004;2022-11-20T10:38:51;97909.62;;;-1.42;83.35
56568;BME280;42456;49.956;20.004;2022-11-20T10:41:27;97907.79;;;-1.39;83.41
56568;BME280;42456;49.956;20.004;2022-11-20T10:44:04;97910.16;;;-1.35;83.25
56568;BME280;42456;49.956;20.004;2022-11-20T10:46:43;97905.42;;;-1.33;83.29
56568;BME280;42456;49.956;20.004;2022-11-20T10:49:19;97903.84;;;-1.29;83.31
56568;BME280;42456;49.956;20.004;2022-11-20T10:51:59;97897.53;;;-1.28;83.17
56568;BME280;42456;49.956;20.004;2022-11-20T11:00:11;97885.40;;;-1.16;83.14
56568;BME280;42456;49.956;20.004;2022-11-20T11:02:56;97887.50;;;-1.11;83.10
56568;BME280;42456;49.956;20.004;2022-11-20T11:08:10;97873.53;;;-1.01;83.02
56568;BME280;42456;49.956;20.004;2022-11-20T11:10:47;97869.58;;;-0.96;82.98
56568;BME280;42456;49.956;20.004;2022-11-20T11:13:22;97861.66;;;-0.94;83.03
56568;BME280;42456;49.956;20.004;2022-11-20T11:15:53;97858.48;;;-0.91;82.86
56568;BME280;42456;49.956;20.004;2022-11-20T11:20:54;97856.38;;;-0.86;82.83
56568;BME280;42456;49.956;20.004;2022-11-20T11:23:34;97856.64;;;-0.83;82.70
56568;BME280;42456;49.956;20.004;2022-11-20T11:26:04;97853.98;;;-0.78;82.63
56568;BME280;42456;49.956;20.004;2022-11-20T11:28:32;97856.63;;;-0.73;82.55
56568;BME280;42456;49.956;20.004;2022-11-20T11:30:58;97858.48;;;-0.71;82.44
56568;BME280;42456;49.956;20.004;2022-11-20T11:36:02;97848.94;;;-0.64;82.55
56568;BME280;42456;49.956;20.004;2022-11-20T11:38:35;97841.80;;;-0.61;82.47
56568;BME280;42456;49.956;20.004;2022-11-20T11:41:05;97847.61;;;-0.57;82.47
56568;BME280;42456;49.956;20.004;2022-11-20T11:43:35;97843.39;;;-0.53;82.47
56568;BME280;42456;49.956;20.004;2022-11-20T11:46:28;97837.55;;;-0.47;82.47
56568;BME280;42456;49.956;20.004;2022-11-20T11:54:43;97821.67;;;-0.37;82.66
56568;BME280;42456;49.956;20.004;2022-11-20T12:00:15;97815.33;;;-0.34;82.55
56568;BME280;42456;49.956;20.004;2022-11-20T12:05:29;97807.10;;;-0.25;82.79
56568;BME280;42456;49.956;20.004;2022-11-20T12:13:57;97803.33;;;-0.09;82.93
56568;BME280;42456;49.956;20.004;2022-11-20T12:16:29;97804.11;;;-0.03;82.71
56568;BME280;42456;49.956;20.004;2022-11-20T12:18:59;97805.63;;;0.03;82.56
56568;BME280;42456;49.956;20.004;2022-11-20T12:21:35;97813.55;;;0.08;82.61
56568;BME280;42456;49.956;20.004;2022-11-20T12:30:05;97821.97;;;0.18;82.21
56568;BME280;42456;49.956;20.004;2022-11-20T12:32:53;97821.42;;;0.18;82.29
56568;BME280;42456;49.956;20.004;2022-11-20T12:38:31;97821.44;;;0.16;81.87
56568;BME280;42456;49.956;20.004;2022-11-20T12:44:16;97810.88;;;0.11;82.24
56568;BME280;42456;49.956;20.004;2022-11-20T12:52:51;97809.77;;;0.22;82.30
56568;BME280;42456;49.956;20.004;2022-11-20T12:55:28;97811.13;;;0.19;82.16
56568;BME280;42456;49.956;20.004;2022-11-20T13:01:03;97807.42;;;0.15;82.17
56568;BME280;42456;49.956;20.004;2022-11-20T13:03:50;97804.01;;;0.15;82.19
56568;BME280;42456;49.956;20.004;2022-11-20T13:06:19;97798.72;;;0.12;82.18
56568;BME280;42456;49.956;20.004;2022-11-20T13:08:48;97796.34;;;0.13;82.18
56568;BME280;42456;49.956;20.004;2022-11-20T13:19:39;97772.50;;;0.18;82.15
56568;BME280;42456;49.956;20.004;2022-11-20T13:22:08;97771.70;;;0.20;82.08
56568;BME280;42456;49.956;20.004;2022-11-20T13:24:34;97769.31;;;0.21;82.08
56568;BME280;42456;49.956;20.004;2022-11-20T13:29:41;97761.41;;;0.19;81.88
56568;BME280;42456;49.956;20.004;2022-11-20T13:32:18;97773.05;;;0.15;81.89
56568;BME280;42456;49.956;20.004;2022-11-20T13:34:57;97761.70;;;0.12;81.96
56568;BME280;42456;49.956;20.004;2022-11-20T13:37:34;97754.07;;;0.08;81.91
56568;BME280;42456;49.956;20.004;2022-11-20T13:42:51;97734.84;;;0.00;81.90
56568;BME280;42456;49.956;20.004;2022-11-20T13:45:25;97736.98;;;-0.07;81.87
56568;BME280;42456;49.956;20.004;2022-11-20T13:47:55;97736.25;;;-0.15;81.90
56568;BME280;42456;49.956;20.004;2022-11-20T13:50:32;97733.09;;;-0.22;81.95
56568;BME280;42456;49.956;20.004;2022-11-20T13:53:04;97737.36;;;-0.26;82.02
56568;BME280;42456;49.956;20.004;2022-11-20T13:55:50;97733.41;;;-0.29;82.19
56568;BME280;42456;49.956;20.004;2022-11-20T13:58:44;97731.05;;;-0.30;82.30
56568;BME280;42456;49.956;20.004;2022-11-20T14:01:28;97734.73;;;-0.31;82.48
56568;BME280;42456;49.956;20.004;2022-11-20T14:03:57;97732.61;;;-0.29;82.73
56568;BME280;42456;49.956;20.004;2022-11-20T14:06:29;97747.13;;;-0.27;82.88
56568;BME280;42456;49.956;20.004;2022-11-20T14:08:58;97744.20;;;-0.25;82.97
56568;BME280;42456;49.956;20.004;2022-11-20T14:11:27;97738.66;;;-0.24;83.08
56568;BME280;42456;49.956;20.004;2022-11-20T14:14:16;97742.07;;;-0.21;83.15
56568;BME280;42456;49.956;20.004;2022-11-20T14:16:43;97738.39;;;-0.20;83.22
56568;BME280;42456;49.956;20.004;2022-11-20T14:19:25;97739.44;;;-0.18;83.27
56568;BME280;42456;49.956;20.004;2022-11-20T14:22:08;97739.69;;;-0.17;83.27
56568;BME280;42456;49.956;20.004;2022-11-20T14:24:36;97736.25;;;-0.15;83.29
56568;BME280;42456;49.956;20.004;2022-11-20T14:27:03;97727.77;;;-0.15;83.26
56568;BME280;42456;49.956;20.004;2022-11-20T14:29:37;97728.87;;;-0.18;83.13
56568;BME280;42456;49.956;20.004;2022-11-20T14:32:04;97728.36;;;-0.23;83.01